Time;durP1;ratioP1;P1;durP2;ratioP2;P2;SDS_P1;SDS_P2;PMS_P1;PMS_P2;Temp;Humidity;BMP_temperature;BMP_pressure;BME280_temperature;BME280_humidity;BME280_pressure;Samples;Min_cycle;Max_cycle;Signal;HPM_P1;HPM_P2
2022/07/20 00:00:23;;;;;;;5.45;2.80;;;23.00;63.00;;;;;;5006101;28;20447;-51
2022/07/20 00:02:48;;;;;;;4.68;3.08;;;23.00;63.30;;;;;;5026420;28;20038;-48
2022/07/20 00:05:14;;;;;;;6.53;3.20;;;23.00;63.20;;;;;;5028247;28;20428;-50
2022/07/20 00:07:40;;;;;;;4.93;3.40;;;23.00;62.90;;;;;;5023319;28;20048;-48
2022/07/20 00:12:50;;;;;;;5.00;3.03;;;22.90;62.70;;;;;;5032532;28;20076;-52
2022/07/20 00:15:16;;;;;;;3.20;2.90;;;22.90;62.90;;;;;;5029614;28;20340;-47
2022/07/20 00:17:41;;;;;;;3.33;3.00;;;22.80;63.20;;;;;;5034246;28;20097;-46
2022/07/20 00:20:08;;;;;;;6.32;3.38;;;22.80;63.00;;;;;;5029978;28;20045;-49
2022/07/20 00:22:33;;;;;;;4.45;3.13;;;22.80;63.00;;;;;;5030079;28;20399;-49
2022/07/20 00:24:59;;;;;;;5.97;3.45;;;22.80;63.40;;;;;;5031321;28;20384;-47
2022/07/20 00:27:24;;;;;;;5.63;3.40;;;22.70;63.50;;;;;;5037770;28;20414;-46
2022/07/20 00:29:50;;;;;;;4.25;3.08;;;22.70;63.40;;;;;;5005273;28;20049;-47
2022/07/20 00:32:15;;;;;;;4.60;3.47;;;22.60;63.70;;;;;;5011762;28;20034;-47
2022/07/20 00:34:41;;;;;;;9.93;3.15;;;22.60;63.80;;;;;;5026598;28;20495;-47
2022/07/20 00:37:06;;;;;;;5.93;3.08;;;22.60;64.10;;;;;;5024995;28;20443;-48
2022/07/20 00:39:32;;;;;;;5.45;3.03;;;22.50;63.50;;;;;;5025511;28;20110;-47
2022/07/20 00:41:58;;;;;;;4.05;3.08;;;22.50;64.20;;;;;;5012047;28;20037;-46
2022/07/20 00:44:23;;;;;;;4.57;3.20;;;22.50;64.00;;;;;;5031090;28;20060;-46
2022/07/20 00:46:49;;;;;;;8.65;3.28;;;22.40;64.40;;;;;;5028193;28;20075;-49
2022/07/20 00:49:14;;;;;;;4.90;3.13;;;22.40;63.90;;;;;;5026174;28;20559;-50
2022/07/20 00:51:44;;;;;;;5.50;3.33;;;22.30;63.90;;;;;;5027008;28;20045;-51
2022/07/20 00:54:10;;;;;;;4.57;3.17;;;22.30;64.50;;;;;;5028847;28;20042;-48
2022/07/20 00:56:36;;;;;;;6.53;3.30;;;22.30;64.40;;;;;;5022333;28;20037;-47
2022/07/20 00:59:08;;;;;;;4.25;3.35;;;22.30;64.20;;;;;;5020458;28;20437;-51
2022/07/20 01:01:34;;;;;;;5.72;3.70;;;22.20;64.50;;;;;;5017802;28;20679;-48
2022/07/20 01:03:59;;;;;;;5.72;3.55;;;22.20;64.30;;;;;;5024284;28;20038;-46
2022/07/20 01:06:26;;;;;;;4.57;3.40;;;22.20;64.10;;;;;;5021094;28;20053;-49
2022/07/20 01:08:52;;;;;;;5.75;3.45;;;22.10;64.10;;;;;;5023938;28;20064;-47
2022/07/20 01:11:19;;;;;;;5.63;3.25;;;22.10;64.40;;;;;;5018604;28;20034;-46
2022/07/20 01:13:44;;;;;;;9.00;3.45;;;22.10;64.20;;;;;;5023614;28;20140;-47
2022/07/20 01:16:10;;;;;;;4.25;3.30;;;22.10;64.50;;;;;;5019658;28;20132;-51
2022/07/20 01:18:36;;;;;;;9.73;3.50;;;22.00;64.50;;;;;;5022022;28;20068;-51
2022/07/20 01:21:07;;;;;;;6.22;3.70;;;22.00;64.70;;;;;;5021100;28;20061;-47
2022/07/20 01:23:34;;;;;;;5.45;3.60;;;22.00;64.80;;;;;;5019082;28;20034;-49
2022/07/20 01:26:00;;;;;;;6.00;3.40;;;21.90;64.80;;;;;;5022801;28;20049;-47
2022/07/20 01:28:28;;;;;;;4.40;3.70;;;21.90;65.20;;;;;;5024403;28;20495;-47
2022/07/20 01:30:54;;;;;;;5.95;3.58;;;21.90;65.40;;;;;;5026796;28;20044;-49
2022/07/20 01:33:21;;;;;;;6.15;3.72;;;21.80;65.60;;;;;;5024172;28;20042;-46
2022/07/20 01:35:46;;;;;;;5.53;3.50;;;21.80;65.60;;;;;;5025791;28;20140;-49
2022/07/20 01:38:12;;;;;;;6.05;3.47;;;21.70;65.70;;;;;;5028760;28;20629;-48
2022/07/20 01:40:37;;;;;;;4.30;3.40;;;21.70;65.50;;;;;;5014241;28;20052;-48
2022/07/20 01:43:03;;;;;;;4.05;3.30;;;21.70;65.70;;;;;;5022488;28;20042;-47
2022/07/20 01:45:29;;;;;;;5.07;3.70;;;21.70;65.60;;;;;;5024020;28;20128;-48
2022/07/20 01:47:54;;;;;;;7.32;3.67;;;21.70;74.70;;;;;;5025072;28;20040;-48
2022/07/20 01:52:48;;;;;;;5.13;3.90;;;21.60;79.50;;;;;;5100299;27;20046;-73
2022/07/20 01:55:15;;;;;;;4.60;3.70;;;21.50;66.30;;;;;;5103473;28;20043;-72
2022/07/20 01:57:41;;;;;;;5.10;3.15;;;;;;;;;;5102356;27;20055;-72
2022/07/20 02:00:09;;;;;;;5.15;3.60;;;21.50;65.80;;;;;;5085429;28;20042;-71
2022/07/20 02:02:35;;;;;;;4.97;3.70;;;21.40;66.30;;;;;;5101246;27;20039;-71
2022/07/20 02:05:00;;;;;;;5.05;3.85;;;21.40;67.00;;;;;;5103321;28;20044;-73
2022/07/20 02:07:26;;;;;;;5.85;3.70;;;21.40;66.60;;;;;;5097788;27;20048;-71
2022/07/20 02:09:51;;;;;;;5.78;3.63;;;21.40;67.50;;;;;;5103233;27;20075;-72
2022/07/20 02:12:19;;;;;;;6.57;4.18;;;21.30;66.70;;;;;;5110333;27;20052;-75
2022/07/20 02:14:45;;;;;;;6.93;3.58;;;21.30;66.90;;;;;;5097276;28;20482;-75
2022/07/20 02:17:10;;;;;;;5.47;3.40;;;21.30;67.00;;;;;;5099021;28;20061;-75
2022/07/20 02:19:36;;;;;;;6.95;3.83;;;21.30;67.00;;;;;;5103872;27;20088;-73
2022/07/20 02:22:01;;;;;;;5.43;4.20;;;21.20;67.30;;;;;;5107446;27;20474;-73
2022/07/20 02:24:27;;;;;;;6.43;3.60;;;21.20;67.60;;;;;;5082578;28;20088;-74
2022/07/20 02:26:52;;;;;;;9.75;4.15;;;21.10;67.40;;;;;;5100698;27;20506;-74
2022/07/20 02:29:18;;;;;;;5.85;3.90;;;21.10;67.70;;;;;;5101391;27;20381;-73
2022/07/20 02:31:44;;;;;;;5.03;3.60;;;21.10;67.60;;;;;;5099599;28;20047;-72
2022/07/20 02:34:09;;;;;;;4.07;3.70;;;21.00;67.60;;;;;;5104718;28;20445;-74
2022/07/20 02:36:35;;;;;;;8.40;3.67;;;21.00;67.60;;;;;;5103515;28;20063;-75
2022/07/20 02:39:00;;;;;;;7.15;3.70;;;20.90;67.90;;;;;;5104421;28;20040;-74
2022/07/20 02:41:26;;;;;;;6.70;3.47;;;20.90;68.00;;;;;;5100879;27;20398;-75
2022/07/20 02:43:52;;;;;;;5.00;3.78;;;20.90;68.00;;;;;;5108967;27;20032;-73
2022/07/20 02:46:17;;;;;;;4.85;3.58;;;20.90;68.00;;;;;;5097369;27;20483;-75
2022/07/20 02:48:43;;;;;;;5.05;3.72;;;20.80;68.90;;;;;;5098883;27;20047;-74
2022/07/20 02:51:08;;;;;;;13.23;4.93;;;20.80;68.30;;;;;;5097421;28;20398;-73
2022/07/20 02:53:34;;;;;;;6.60;3.58;;;20.80;69.30;;;;;;5099273;28;20114;-74
2022/07/20 02:56:00;;;;;;;5.90;4.18;;;20.70;68.50;;;;;;5088696;28;20035;-73
2022/07/20 02:58:25;;;;;;;5.63;4.32;;;20.70;68.60;;;;;;5075150;28;20138;-73
2022/07/20 03:00:51;;;;;;;5.13;3.63;;;20.70;68.80;;;;;;5092969;28;20548;-74
2022/07/20 03:03:16;;;;;;;9.55;4.38;;;20.70;68.90;;;;;;5087209;28;20434;-75
2022/07/20 03:05:42;;;;;;;5.22;4.00;;;20.70;68.80;;;;;;5071300;28;20052;-74
2022/07/20 03:08:08;;;;;;;11.10;3.83;;;20.70;68.30;;;;;;5091832;28;20066;-73
2022/07/20 03:10:34;;;;;;;4.72;4.03;;;20.70;68.70;;;;;;5069421;28;20041;-74
2022/07/20 03:12:59;;;;;;;6.20;4.18;;;20.70;68.90;;;;;;5068743;28;20040;-74
2022/07/20 03:15:25;;;;;;;8.18;4.22;;;20.70;68.50;;;;;;5053573;28;20067;-73
2022/07/20 03:17:54;;;;;;;9.77;4.47;;;20.70;68.80;;;;;;5090741;28;20675;-73
2022/07/20 03:20:25;;;;;;;5.68;4.30;;;20.70;68.70;;;;;;5078391;28;20046;-76
2022/07/20 03:22:51;;;;;;;6.45;4.00;;;20.70;69.00;;;;;;5098388;28;20063;-77
2022/07/20 03:25:17;;;;;;;6.45;3.85;;;20.70;69.00;;;;;;5088022;28;20196;-74
2022/07/20 03:27:43;;;;;;;5.97;4.00;;;20.70;68.70;;;;;;5090005;28;20048;-73
2022/07/20 03:30:09;;;;;;;5.85;4.00;;;20.70;68.70;;;;;;5087405;28;20544;-71
2022/07/20 03:32:35;;;;;;;6.05;4.50;;;20.70;69.00;;;;;;5090423;28;20410;-74
2022/07/20 03:35:01;;;;;;;5.05;4.40;;;20.60;69.30;;;;;;5092871;28;20047;-75
2022/07/20 03:37:27;;;;;;;11.38;4.30;;;20.60;69.30;;;;;;5070655;28;20043;-74
2022/07/20 03:39:52;;;;;;;6.07;4.25;;;20.70;68.90;;;;;;5095363;28;20046;-75
2022/07/20 03:42:18;;;;;;;5.25;3.60;;;20.60;68.80;;;;;;5085859;28;20391;-76
2022/07/20 03:44:44;;;;;;;6.38;4.22;;;20.60;68.80;;;;;;5087478;28;20058;-77
2022/07/20 03:47:09;;;;;;;8.52;4.60;;;20.60;69.20;;;;;;5076810;28;20052;-75
2022/07/20 03:49:35;;;;;;;6.43;4.03;;;20.70;69.30;;;;;;5093661;28;20185;-76
2022/07/20 03:52:01;;;;;;;8.02;4.75;;;20.70;69.10;;;;;;5094084;28;20063;-76
2022/07/20 03:54:26;;;;;;;4.32;4.03;;;20.70;68.90;;;;;;5073757;28;20044;-74
2022/07/20 03:56:52;;;;;;;7.78;4.22;;;20.70;68.80;;;;;;5084859;28;20126;-75
2022/07/20 03:59:17;;;;;;;5.32;4.25;;;20.80;68.90;;;;;;5083450;28;20135;-75
2022/07/20 04:01:43;;;;;;;9.80;4.32;;;20.80;69.30;;;;;;5081136;28;20044;-76
2022/07/20 04:04:09;;;;;;;4.88;4.20;;;20.80;69.60;;;;;;5081076;28;20108;-75
2022/07/20 04:06:34;;;;;;;6.13;4.32;;;20.80;69.70;;;;;;5083843;28;20520;-75
2022/07/20 04:09:00;;;;;;;4.72;3.90;;;20.80;69.20;;;;;;5083035;28;20043;-75
2022/07/20 04:11:26;;;;;;;9.35;4.72;;;20.80;69.40;;;;;;5081691;28;20195;-74
2022/07/20 04:13:52;;;;;;;6.68;3.97;;;20.90;69.20;;;;;;5065299;28;20037;-74
2022/07/20 04:16:17;;;;;;;7.47;4.32;;;20.90;69.20;;;;;;5076252;28;20119;-75
2022/07/20 04:18:43;;;;;;;4.13;3.78;;;21.00;69.20;;;;;;5088800;28;20118;-75
2022/07/20 04:21:09;;;;;;;13.55;4.05;;;20.90;69.00;;;;;;5082693;28;20102;-75
2022/07/20 04:23:34;;;;;;;8.13;3.90;;;21.00;69.20;;;;;;5098664;28;20046;-74
2022/07/20 04:26:00;;;;;;;9.00;4.60;;;21.00;69.20;;;;;;5103081;28;20100;-74
2022/07/20 04:28:26;;;;;;;6.75;4.30;;;;;;;;;;5097996;28;20040;-75
2022/07/20 04:30:51;;;;;;;7.43;4.00;;;21.10;68.80;;;;;;5087546;28;20509;-75
2022/07/20 04:33:18;;;;;;;4.28;3.80;;;21.20;69.40;;;;;;5099022;28;20044;-74
2022/07/20 04:35:44;;;;;;;6.97;4.17;;;21.20;69.10;;;;;;5101245;28;20040;-74
2022/07/20 04:38:13;;;;;;;6.97;4.28;;;21.30;69.40;;;;;;5103387;28;20403;-74
2022/07/20 04:40:42;;;;;;;5.70;4.25;;;21.30;69.40;;;;;;5105150;28;20100;-75
2022/07/20 04:43:08;;;;;;;5.10;4.10;;;;;;;;;;5090961;28;20043;-73
2022/07/20 04:45:33;;;;;;;4.72;3.67;;;22.50;68.10;;;;;;5094971;28;20039;-73
2022/07/20 04:47:59;;;;;;;8.15;3.92;;;23.50;67.30;;;;;;5099856;28;20150;-73
2022/07/20 04:50:25;;;;;;;10.25;3.90;;;24.40;66.40;;;;;;5086570;28;20039;-74
2022/07/20 04:52:51;;;;;;;7.30;4.00;;;25.10;63.50;;;;;;5100012;28;20047;-74
2022/07/20 04:55:17;;;;;;;6.38;3.88;;;25.70;62.40;;;;;;5099106;28;20092;-74
2022/07/20 04:57:42;;;;;;;5.60;3.92;;;26.40;61.90;;;;;;5102389;28;20502;-73
2022/07/20 05:00:08;;;;;;;9.18;3.97;;;26.80;61.00;;;;;;5091441;28;20131;-74
2022/07/20 05:02:34;;;;;;;6.68;3.80;;;27.30;60.40;;;;;;5092549;28;20069;-74
2022/07/20 05:05:00;;;;;;;6.78;4.50;;;27.70;59.80;;;;;;5089315;28;20108;-72
2022/07/20 05:07:25;;;;;;;7.45;4.40;;;28.20;58.40;;;;;;5087119;28;20131;-72
2022/07/20 05:09:51;;;;;;;7.15;4.00;;;28.90;58.80;;;;;;5094397;28;20135;-71
2022/07/20 05:12:16;;;;;;;6.65;3.25;;;29.20;58.00;;;;;;5077855;28;20039;-71
2022/07/20 05:14:42;;;;;;;4.90;3.58;;;29.40;58.30;;;;;;5069330;28;21433;-70
2022/07/20 05:17:08;;;;;;;4.32;3.80;;;29.70;56.50;;;;;;5085510;28;20406;-72
2022/07/20 05:19:33;;;;;;;8.27;4.00;;;30.10;56.20;;;;;;5085511;28;20147;-72
2022/07/20 05:21:59;;;;;;;6.60;4.03;;;30.20;56.10;;;;;;5097643;28;20036;-72
2022/07/20 05:24:25;;;;;;;5.93;3.72;;;30.50;54.40;;;;;;5089694;28;20048;-70
2022/07/20 05:26:50;;;;;;;5.30;3.75;;;30.90;55.60;;;;;;5092395;28;20079;-70
2022/07/20 05:29:16;;;;;;;7.13;3.72;;;31.60;54.70;;;;;;5087038;28;20075;-70
2022/07/20 05:31:42;;;;;;;9.05;4.15;;;32.20;54.70;;;;;;5089179;28;20032;-70
2022/07/20 05:34:07;;;;;;;11.05;3.80;;;32.20;53.80;;;;;;5078800;28;20090;-70
2022/07/20 05:36:33;;;;;;;10.43;4.20;;;32.60;53.80;;;;;;5080651;28;20048;-73
2022/07/20 05:38:58;;;;;;;7.93;3.72;;;32.80;52.80;;;;;;5065816;28;20652;-72
2022/07/20 05:41:24;;;;;;;7.57;4.10;;;33.40;53.40;;;;;;5088502;28;20471;-73
2022/07/20 05:43:50;;;;;;;10.00;4.03;;;33.40;52.30;;;;;;5088319;28;20036;-73
2022/07/20 05:46:15;;;;;;;10.05;3.65;;;33.70;52.90;;;;;;5081477;28;20048;-73
2022/07/20 05:48:41;;;;;;;5.90;3.80;;;33.80;52.50;;;;;;5085261;28;20040;-74
2022/07/20 05:51:06;;;;;;;18.80;4.33;;;34.30;51.40;;;;;;5094116;28;20419;-73
2022/07/20 05:53:32;;;;;;;11.70;3.50;;;34.70;50.80;;;;;;5085379;28;20040;-73
2022/07/20 05:55:57;;;;;;;6.47;3.83;;;34.50;51.10;;;;;;5088421;28;20036;-74
2022/07/20 05:58:23;;;;;;;8.93;3.67;;;34.50;50.10;;;;;;5090340;28;20051;-71
2022/07/20 06:00:49;;;;;;;9.80;3.43;;;35.00;50.60;;;;;;5091502;28;20041;-69
2022/07/20 06:03:14;;;;;;;7.73;4.00;;;34.90;48.40;;;;;;5088398;28;20127;-70
2022/07/20 06:05:40;;;;;;;9.80;3.80;;;35.40;49.90;;;;;;5087711;28;20044;-71
2022/07/20 06:08:05;;;;;;;6.83;3.57;;;35.90;49.20;;;;;;5087555;28;20133;-70
2022/07/20 06:10:33;;;;;;;7.43;4.27;;;36.10;50.00;;;;;;5083642;28;20043;-70
2022/07/20 06:12:59;;;;;;;8.43;3.50;;;36.50;49.20;;;;;;5069649;28;20032;-70
2022/07/20 06:15:25;;;;;;;7.15;3.10;;;36.80;50.00;;;;;;5097649;28;20028;-70
2022/07/20 06:17:53;;;;;;;4.53;3.27;;;37.00;47.60;;;;;;5081215;28;20031;-70
2022/07/20 06:20:20;;;;;;;6.20;3.22;;;37.10;47.80;;;;;;5077304;28;20466;-70
2022/07/20 06:22:46;;;;;;;5.60;3.10;;;37.30;47.10;;;;;;5095731;28;20126;-71
2022/07/20 06:25:13;;;;;;;7.33;3.10;;;37.70;46.30;;;;;;5088661;28;20134;-70
2022/07/20 06:27:40;;;;;;;4.05;3.35;;;37.30;44.90;;;;;;5091205;28;20298;-72
2022/07/20 06:30:07;;;;;;;7.93;3.20;;;36.70;44.00;;;;;;5090380;28;20444;-70
2022/07/20 06:32:33;;;;;;;5.80;3.30;;;37.20;45.20;;;;;;5084092;28;20470;-69
2022/07/20 06:34:59;;;;;;;;;;;37.20;45.70;;;;;;5081801;28;20432;-71
2022/07/20 06:37:24;;;;;;;5.60;3.58;;;37.30;45.20;;;;;;5084258;28;19935;-70
2022/07/20 06:39:50;;;;;;;4.93;3.50;;;37.30;45.70;;;;;;5082598;28;20036;-68
2022/07/20 06:42:17;;;;;;;6.07;3.45;;;37.30;44.50;;;;;;5075858;28;20043;-68
2022/07/20 06:44:43;;;;;;;6.85;3.42;;;37.40;44.50;;;;;;5090354;28;20040;-69
2022/07/20 06:47:08;;;;;;;5.03;3.67;;;37.20;45.00;;;;;;5073480;28;20106;-69
2022/07/20 06:49:34;;;;;;;5.80;3.23;;;37.60;44.70;;;;;;5088881;28;20451;-74
2022/07/20 06:52:00;;;;;;;6.93;3.58;;;37.70;45.30;;;;;;5084359;28;20094;-70
2022/07/20 06:54:26;;;;;;;6.97;3.73;;;37.60;45.20;;;;;;5090461;28;20045;-70
2022/07/20 06:56:52;;;;;;;3.75;3.42;;;37.70;45.90;;;;;;5071827;28;20139;-67
2022/07/20 06:59:18;;;;;;;5.32;3.33;;;37.70;44.80;;;;;;5087805;28;20042;-68
2022/07/20 07:01:43;;;;;;;9.53;4.30;;;37.80;46.00;;;;;;5084055;28;20044;-70
2022/07/20 07:04:09;;;;;;;6.60;3.67;;;37.60;45.00;;;;;;5088998;28;20649;-70
2022/07/20 07:06:35;;;;;;;7.60;3.87;;;37.50;45.40;;;;;;5094914;28;20040;-71
2022/07/20 07:09:00;;;;;;;7.33;3.97;;;37.40;45.40;;;;;;5090681;28;20041;-69
2022/07/20 07:11:26;;;;;;;7.20;3.97;;;37.50;45.80;;;;;;5076674;28;20474;-70
2022/07/20 07:13:52;;;;;;;6.50;4.00;;;37.40;45.80;;;;;;5095713;28;20309;-68
2022/07/20 07:16:17;;;;;;;7.60;4.50;;;37.30;46.10;;;;;;5083721;28;20044;-68
2022/07/20 07:18:43;;;;;;;7.47;4.93;;;37.30;45.30;;;;;;5091030;28;20032;-68
2022/07/20 07:21:09;;;;;;;12.35;4.15;;;37.00;46.00;;;;;;5105535;28;20042;-67
2022/07/20 07:23:34;;;;;;;6.95;4.15;;;37.40;47.00;;;;;;5102184;28;20485;-68
2022/07/20 07:26:00;;;;;;;8.20;4.73;;;37.30;47.90;;;;;;5063572;28;20352;-68
2022/07/20 07:28:26;;;;;;;5.78;4.50;;;37.40;47.00;;;;;;5083042;28;20045;-68
2022/07/20 07:30:52;;;;;;;8.32;5.85;;;37.30;46.60;;;;;;5063368;28;20044;-67
2022/07/20 07:33:19;;;;;;;9.23;4.60;;;37.20;47.10;;;;;;5042495;28;20044;-68
2022/07/20 07:35:45;;;;;;;8.18;5.40;;;37.30;47.90;;;;;;5078521;28;20048;-68
2022/07/20 07:38:13;;;;;;;9.73;5.40;;;37.20;47.10;;;;;;5084780;28;20040;-68
2022/07/20 07:40:38;;;;;;;6.15;5.13;;;36.90;47.40;;;;;;5089402;28;20066;-68
2022/07/20 07:43:04;;;;;;;8.47;5.90;;;36.80;48.40;;;;;;5097063;28;20036;-68
2022/07/20 07:45:29;;;;;;;9.47;6.13;;;36.40;48.20;;;;;;5093077;28;20032;-68
2022/07/20 07:47:55;;;;;;;9.40;6.63;;;36.10;49.40;;;;;;5099435;28;20104;-67
2022/07/20 07:50:20;;;;;;;11.13;7.10;;;34.70;49.50;;;;;;5086430;28;20036;-68
2022/07/20 07:52:46;;;;;;;10.17;7.40;;;34.60;50.60;;;;;;5084335;28;20128;-68
2022/07/20 07:55:12;;;;;;;11.80;7.90;;;34.10;51.50;;;;;;5096395;28;20028;-67
2022/07/20 07:57:37;;;;;;;11.77;8.83;;;33.60;52.50;;;;;;5082445;28;20046;-67
2022/07/20 08:00:05;;;;;;;12.87;9.63;;;33.20;53.40;;;;;;5092751;28;20040;-67
2022/07/20 08:02:31;;;;;;;15.23;9.40;;;32.90;54.80;;;;;;5084874;28;20039;-68
2022/07/20 08:04:57;;;;;;;17.07;9.53;;;32.80;55.60;;;;;;5086375;28;20341;-68
2022/07/20 08:07:22;;;;;;;13.67;9.93;;;32.60;56.30;;;;;;5077623;28;20078;-67
2022/07/20 08:09:48;;;;;;;15.10;11.50;;;32.50;57.60;;;;;;5075490;28;20036;-67
2022/07/20 08:12:13;;;;;;;17.43;12.20;;;32.30;58.40;;;;;;5080589;28;20085;-67
2022/07/20 08:14:39;;;;;;;14.07;11.97;;;32.30;59.00;;;;;;5084818;28;20089;-72
2022/07/20 08:17:04;;;;;;;17.37;12.03;;;32.30;59.20;;;;;;5080958;28;20046;-69
2022/07/20 08:19:30;;;;;;;15.77;12.37;;;32.30;59.90;;;;;;5086633;28;20523;-68
2022/07/20 08:21:56;;;;;;;15.17;12.37;;;32.00;59.40;;;;;;5092707;28;20068;-68
2022/07/20 08:24:22;;;;;;;13.97;12.33;;;32.00;60.80;;;;;;5093835;28;20105;-68
2022/07/20 08:26:47;;;;;;;20.50;14.07;;;32.00;60.90;;;;;;5080032;28;20476;-68
2022/07/20 08:29:13;;;;;;;19.23;13.40;;;31.80;61.50;;;;;;5085231;28;20040;-69
2022/07/20 08:31:38;;;;;;;18.77;14.90;;;31.60;61.80;;;;;;5082725;28;20044;-68
2022/07/20 08:34:04;;;;;;;15.13;13.63;;;31.60;62.40;;;;;;5084243;28;20131;-68
2022/07/20 08:36:30;;;;;;;16.07;14.37;;;31.40;63.40;;;;;;5077833;28;20036;-68
2022/07/20 08:38:55;;;;;;;17.50;14.33;;;31.50;63.10;;;;;;5077392;28;20040;-68
2022/07/20 08:41:22;;;;;;;17.13;14.43;;;31.60;63.20;;;;;;5047938;28;20147;-68
2022/07/20 08:43:47;;;;;;;19.55;13.85;;;31.50;63.50;;;;;;5076315;28;20082;-69
2022/07/20 08:46:13;;;;;;;17.30;14.47;;;31.60;62.70;;;;;;5076941;28;20495;-68
2022/07/20 08:48:42;;;;;;;18.60;15.57;;;31.50;62.70;;;;;;5082657;28;20102;-68
2022/07/20 08:51:07;;;;;;;16.33;14.55;;;31.60;63.20;;;;;;5083001;28;20048;-68
2022/07/20 08:53:33;;;;;;;17.73;15.37;;;31.80;63.20;;;;;;5084441;28;20055;-68
2022/07/20 08:55:59;;;;;;;16.93;14.93;;;31.70;63.20;;;;;;5065693;28;20036;-68
2022/07/20 08:58:26;;;;;;;19.30;15.65;;;31.70;63.10;;;;;;5064936;28;20040;-68
2022/07/20 09:00:51;;;;;;;21.13;14.57;;;31.70;63.20;;;;;;5093691;28;20447;-68
2022/07/20 09:03:17;;;;;;;25.20;15.23;;;31.70;63.10;;;;;;5063477;28;20033;-67
2022/07/20 09:05:43;;;;;;;19.60;16.80;;;31.90;63.10;;;;;;5095928;28;20090;-68
2022/07/20 09:08:18;;;;;;;18.47;16.37;;;31.80;62.20;;;;;;5083178;28;20032;-67
2022/07/20 09:10:49;;;;;;;19.80;16.33;;;31.80;62.30;;;;;;5085615;28;20416;-67
2022/07/20 09:13:19;;;;;;;21.90;17.35;;;31.60;62.10;;;;;;5082352;28;20127;-68
2022/07/20 09:15:53;;;;;;;22.95;17.58;;;31.70;62.10;;;;;;5080067;28;20044;-68
2022/07/20 09:18:29;;;;;;;19.88;17.88;;;31.70;61.90;;;;;;5082839;28;20036;-68
2022/07/20 09:20:59;;;;;;;22.40;18.50;;;31.50;62.20;;;;;;5084411;28;20055;-69
2022/07/20 09:23:31;;;;;;;21.55;18.58;;;31.40;62.20;;;;;;5083839;28;20059;-68
2022/07/20 09:25:58;;;;;;;23.58;18.42;;;31.50;63.20;;;;;;5077752;28;20131;-68
2022/07/20 09:28:44;;;;;;;;;;;31.70;63.50;;;;;;5082831;28;20040;-68
2022/07/20 09:31:30;;;;;;;;;;;31.70;62.40;;;;;;5082898;28;19947;-68
2022/07/20 09:33:57;;;;;;;;;;;31.60;63.10;;;;;;5084431;28;19921;-68
2022/07/20 09:36:24;;;;;;;;;;;31.60;63.00;;;;;;5065549;28;19928;-68
2022/07/20 09:38:49;;;;;;;;;;;31.70;63.30;;;;;;5090141;28;19966;-68
2022/07/20 09:41:21;;;;;;;;;;;31.90;63.50;;;;;;5084440;28;20354;-68
2022/07/20 09:43:47;;;;;;;;;;;31.70;63.80;;;;;;5085796;28;19920;-68
2022/07/20 09:46:19;;;;;;;;;;;31.70;62.40;;;;;;5088152;28;19928;-68
2022/07/20 09:48:46;;;;;;;;;;;32.00;63.20;;;;;;5079457;28;19926;-67
2022/07/20 09:51:18;;;;;;;;;;;32.00;62.50;;;;;;5083505;28;19935;-68
2022/07/20 09:53:44;;;;;;;;;;;31.90;62.10;;;;;;5066038;28;19924;-68
2022/07/20 09:56:09;;;;;;;;;;;32.10;62.00;;;;;;5084608;28;19926;-69
2022/07/20 09:58:35;;;;;;;;;;;32.10;63.00;;;;;;5082496;28;19961;-67
2022/07/20 10:01:01;;;;;;;;;;;32.10;62.50;;;;;;5086579;28;20011;-67
2022/07/20 10:03:27;;;;;;;;;;;32.20;62.50;;;;;;5088507;28;19920;-67
2022/07/20 10:05:54;;;;;;;;;;;32.20;60.40;;;;;;5100399;28;19928;-67
2022/07/20 10:08:19;;;;;;;;;;;31.90;60.00;;;;;;5095927;28;19952;-67
2022/07/20 10:10:45;;;;;;;;;;;32.00;59.70;;;;;;5081993;28;20389;-67
2022/07/20 10:13:10;;;;;;;;;;;32.20;59.40;;;;;;5070927;28;19920;-67
2022/07/20 10:15:51;;;;;;;;;;;32.00;58.30;;;;;;5089369;28;19930;-67
2022/07/20 10:18:18;;;;;;;;;;;31.90;57.30;;;;;;5065227;28;20003;-67
2022/07/20 10:20:44;;;;;;;;;;;31.90;57.60;;;;;;5065635;28;20281;-67
2022/07/20 10:23:15;;;;;;;;;;;31.90;57.80;;;;;;5081161;28;20062;-67
2022/07/20 10:25:41;;;;;;;;;;;31.90;58.00;;;;;;5084757;28;20295;-67
2022/07/20 10:28:22;;;;;;;;;;;31.80;57.30;;;;;;5085709;28;19928;-67
2022/07/20 10:30:51;;;;;;;;;;;31.90;57.70;;;;;;5088975;28;19920;-67
2022/07/20 10:33:17;;;;;;;;;;;31.90;58.50;;;;;;5082135;28;19927;-67
2022/07/20 10:35:42;;;;;;;;;;;31.70;57.60;;;;;;5084954;28;20294;-67
2022/07/20 10:38:09;;;;;;;;;;;31.60;58.10;;;;;;5088968;28;20005;-70
2022/07/20 10:41:31;;;;;;;;;;;31.60;58.50;;;;;;5097474;28;19930;-70
2022/07/20 10:43:21;;;;;;;;;;;31.50;58.10;;;;;;5090629;28;19928;-66
2022/07/20 10:45:46;;;;;;;;;;;31.50;59.20;;;;;;5088558;28;19919;-68
2022/07/20 10:48:12;;;;;;;;;;;31.50;58.90;;;;;;5091141;28;19970;-66
2022/07/20 10:50:38;;;;;;;;;;;31.40;58.20;;;;;;5096631;28;20383;-66
2022/07/20 10:53:10;;;;;;;;;;;31.30;58.30;;;;;;5097443;28;19958;-66
2022/07/20 10:55:35;;;;;;;;;;;31.40;58.60;;;;;;5083517;28;20248;-66
2022/07/20 10:58:10;;;;;;;;;;;31.60;59.10;;;;;;5105374;28;19920;-66
2022/07/20 11:00:37;;;;;;;;;;;31.70;58.70;;;;;;5093474;28;19967;-66
2022/07/20 11:03:04;;;;;;;;;;;31.80;59.30;;;;;;5089864;28;19970;-66
2022/07/20 11:05:29;;;;;;;;;;;31.80;57.70;;;;;;5085361;28;19993;-66
2022/07/20 11:07:55;;;;;;;;;;;31.90;58.80;;;;;;5109871;28;20344;-66
2022/07/20 11:10:30;;;;;;;;;;;32.00;58.60;;;;;;5116928;28;19925;-67
2022/07/20 11:13:00;;;;;;;;;;;31.90;58.40;;;;;;5077864;28;20263;-67
2022/07/20 11:15:38;;;;;;;;;;;31.70;58.80;;;;;;5096272;28;19967;-66
2022/07/20 11:18:05;;;;;;;;;;;31.60;58.70;;;;;;5078140;28;19923;-67
2022/07/20 11:20:31;;;;;;;;;;;31.80;59.40;;;;;;5096406;28;20286;-66
2022/07/20 11:22:57;;;;;;;;;;;31.80;58.40;;;;;;5110195;28;19920;-66
2022/07/20 11:25:27;;;;;;;;;;;32.00;59.40;;;;;;5116265;28;19919;-66
2022/07/20 11:28:00;;;;;;;;;;;32.30;58.70;;;;;;5081431;28;19924;-66
2022/07/20 11:30:35;;;;;;;;;;;32.30;58.60;;;;;;5110940;28;20014;-66
2022/07/20 11:33:00;;;;;;;;;;;32.30;56.80;;;;;;5096773;28;19974;-66
2022/07/20 11:35:26;;;;;;;;;;;32.00;56.80;;;;;;5096377;28;19995;-66
2022/07/20 11:37:52;;;;;;;;;;;31.90;57.00;;;;;;5111623;28;20343;-66
2022/07/20 11:40:19;;;;;;;;;;;32.00;57.10;;;;;;5116223;28;19988;-66
2022/07/20 11:43:04;;;;;;;;;;;32.20;57.10;;;;;;5097354;28;19920;-66
2022/07/20 11:45:29;;;;;;;;;;;32.10;57.00;;;;;;5091001;28;19916;-66
2022/07/20 11:47:55;;;;;;;;;;;32.00;56.90;;;;;;5093376;28;19920;-66
2022/07/20 11:50:20;;;;;;;;;;;31.90;57.10;;;;;;5095065;28;19963;-67
2022/07/20 11:52:46;;;;;;;;;;;31.70;55.50;;;;;;5112337;28;19927;-66
2022/07/20 11:55:11;;;;;;;;;;;31.80;56.40;;;;;;5094814;28;19921;-66
2022/07/20 11:57:38;;;;;;;;;;;31.90;57.80;;;;;;5075067;28;19967;-67
2022/07/20 12:00:04;;;;;;;;;;;31.90;57.30;;;;;;5078495;28;19921;-66
2022/07/20 12:02:30;;;;;;;;;;;31.90;57.40;;;;;;5085107;28;19920;-66
2022/07/20 12:04:57;;;;;;;;;;;32.00;57.80;;;;;;5075046;28;19920;-66
2022/07/20 12:10:20;;;;;;;;;;;31.90;56.60;;;;;;5096096;28;19919;-66
2022/07/20 12:12:59;;;;;;;;;;;32.10;57.10;;;;;;5074163;28;19924;-67
2022/07/20 12:15:24;;;;;;;;;;;32.20;56.90;;;;;;5074855;28;20368;-66
2022/07/20 12:17:51;;;;;;;;;;;32.20;57.10;;;;;;5069366;28;19932;-66
2022/07/20 12:20:16;;;;;;;;;;;32.00;56.80;;;;;;5068307;28;20331;-66
2022/07/20 12:22:49;;;;;;;;;;;32.10;57.80;;;;;;5111466;28;19958;-67
2022/07/20 12:25:14;;;;;;;;;;;32.10;57.60;;;;;;5098709;28;19920;-66
2022/07/20 12:27:42;;;;;;;;;;;32.20;57.40;;;;;;5094990;28;20077;-66
2022/07/20 12:30:28;;;;;;;;;;;32.20;58.00;;;;;;5081498;28;19921;-66
2022/07/20 12:33:01;;;;;;;;;;;32.40;58.10;;;;;;5079432;28;19959;-66
2022/07/20 12:35:27;;;;;;;;;;;32.40;57.90;;;;;;5115147;28;20393;-66
2022/07/20 12:37:55;;;;;;;;;;;32.40;57.60;;;;;;5114124;28;19920;-66
2022/07/20 12:40:30;;;;;;;;;;;32.60;58.00;;;;;;5094913;28;19920;-66
2022/07/20 12:42:56;;;;;;;;;;;32.50;57.60;;;;;;5082466;28;20344;-66
2022/07/20 12:45:21;;;;;;;;;;;32.50;58.30;;;;;;5094647;28;20007;-66
2022/07/20 12:47:46;;;;;;;;;;;32.20;57.30;;;;;;5094524;28;20032;-66
2022/07/20 12:50:12;;;;;;;;;;;32.50;58.30;;;;;;5094511;28;19919;-66
2022/07/20 12:52:37;;;;;;;;;;;32.40;57.60;;;;;;5094491;28;20105;-66
2022/07/20 12:55:03;;;;;;;;;;;32.60;58.30;;;;;;5094688;28;19928;-66
2022/07/20 12:57:29;;;;;;;;;;;32.60;58.20;;;;;;5108060;28;19920;-66
2022/07/20 12:59:54;;;;;;;;;;;32.40;57.80;;;;;;5098033;28;20432;-66
2022/07/20 13:02:20;;;;;;;;;;;32.30;57.70;;;;;;5075979;28;20006;-66
2022/07/20 13:04:46;;;;;;;;;;;32.40;58.70;;;;;;5094666;28;19927;-66
2022/07/20 13:07:12;;;;;;;;;;;32.50;58.90;;;;;;5104918;28;20278;-66
2022/07/20 13:09:37;;;;;;;;;;;32.50;58.60;;;;;;5113724;28;19927;-67
2022/07/20 13:12:03;;;;;;;;;;;32.60;58.20;;;;;;5111595;28;19923;-66
2022/07/20 13:14:28;;;;;;;;;;;32.70;58.40;;;;;;5094084;28;19920;-66